sensor_id;sensor_type;location;lat;lon;timestamp;P1;durP1;ratioP1;P2;durP2;ratioP2
44068;SDS011;29738;51.234;5.484;2022-12-18T00:01:56;14.07;;;6.95;;
44068;SDS011;29738;51.234;5.484;2022-12-18T00:04:23;17.27;;;7.78;;
44068;SDS011;29738;51.234;5.484;2022-12-18T00:06:50;11.55;;;6.97;;
44068;SDS011;29738;51.234;5.484;2022-12-18T00:09:17;12.82;;;7.30;;
44068;SDS011;29738;51.234;5.484;2022-12-18T00:11:43;10.90;;;6.88;;
44068;SDS011;29738;51.234;5.484;2022-12-18T00:14:09;14.32;;;8.10;;
44068;SDS011;29738;51.234;5.484;2022-12-18T00:16:36;14.05;;;8.35;;
44068;SDS011;29738;51.234;5.484;2022-12-18T00:19:03;14.10;;;5.40;;
44068;SDS011;29738;51.234;5.484;2022-12-18T00:21:30;13.57;;;6.30;;
44068;SDS011;29738;51.234;5.484;2022-12-18T00:23:57;15.75;;;6.07;;
44068;SDS011;29738;51.234;5.484;2022-12-18T00:26:25;12.10;;;5.30;;
44068;SDS011;29738;51.234;5.484;2022-12-18T00:28:52;10.50;;;7.32;;
44068;SDS011;29738;51.234;5.484;2022-12-18T00:31:21;12.55;;;8.43;;
44068;SDS011;29738;51.234;5.484;2022-12-18T00:33:48;14.65;;;5.80;;
44068;SDS011;29738;51.234;5.484;2022-12-18T00:36:18;13.70;;;7.20;;
44068;SDS011;29738;51.234;5.484;2022-12-18T00:38:46;10.30;;;4.77;;
44068;SDS011;29738;51.234;5.484;2022-12-18T00:41:12;9.25;;;6.55;;
44068;SDS011;29738;51.234;5.484;2022-12-18T00:43:59;11.90;;;6.90;;
44068;SDS011;29738;51.234;5.484;2022-12-18T00:46:25;18.63;;;7.13;;
44068;SDS011;29738;51.234;5.484;2022-12-18T00:48:51;10.10;;;5.72;;
44068;SDS011;29738;51.234;5.484;2022-12-18T00:51:17;13.88;;;7.25;;
44068;SDS011;29738;51.234;5.484;2022-12-18T00:53:43;9.40;;;6.45;;
44068;SDS011;29738;51.234;5.484;2022-12-18T00:56:09;9.90;;;7.07;;
44068;SDS011;29738;51.234;5.484;2022-12-18T00:58:35;12.18;;;6.28;;
44068;SDS011;29738;51.234;5.484;2022-12-18T01:01:00;16.30;;;7.72;;
44068;SDS011;29738;51.234;5.484;2022-12-18T01:03:28;11.85;;;6.63;;
44068;SDS011;29738;51.234;5.484;2022-12-18T01:05:54;15.18;;;7.38;;
44068;SDS011;29738;51.234;5.484;2022-12-18T01:08:19;17.10;;;7.50;;
44068;SDS011;29738;51.234;5.484;2022-12-18T01:10:45;10.52;;;5.90;;
44068;SDS011;29738;51.234;5.484;2022-12-18T01:13:11;20.20;;;6.53;;
44068;SDS011;29738;51.234;5.484;2022-12-18T01:15:36;8.15;;;6.20;;
44068;SDS011;29738;51.234;5.484;2022-12-18T01:18:02;7.78;;;4.97;;
44068;SDS011;29738;51.234;5.484;2022-12-18T01:20:28;16.55;;;6.50;;
44068;SDS011;29738;51.234;5.484;2022-12-18T01:22:54;10.48;;;6.25;;
44068;SDS011;29738;51.234;5.484;2022-12-18T01:25:19;11.07;;;6.13;;
44068;SDS011;29738;51.234;5.484;2022-12-18T01:27:45;11.63;;;7.03;;
44068;SDS011;29738;51.234;5.484;2022-12-18T01:30:11;10.68;;;5.45;;
44068;SDS011;29738;51.234;5.484;2022-12-18T01:32:37;8.68;;;6.53;;
44068;SDS011;29738;51.234;5.484;2022-12-18T01:35:03;17.00;;;7.53;;
44068;SDS011;29738;51.234;5.484;2022-12-18T01:37:29;10.55;;;6.47;;
44068;SDS011;29738;51.234;5.484;2022-12-18T01:39:55;18.00;;;5.75;;
44068;SDS011;29738;51.234;5.484;2022-12-18T01:42:20;14.50;;;6.30;;
44068;SDS011;29738;51.234;5.484;2022-12-18T01:44:57;11.93;;;7.22;;
44068;SDS011;29738;51.234;5.484;2022-12-18T01:47:45;13.73;;;5.25;;
44068;SDS011;29738;51.234;5.484;2022-12-18T01:50:15;11.40;;;6.60;;
44068;SDS011;29738;51.234;5.484;2022-12-18T01:52:50;7.90;;;5.28;;
44068;SDS011;29738;51.234;5.484;2022-12-18T01:55:19;13.23;;;5.15;;
44068;SDS011;29738;51.234;5.484;2022-12-18T01:57:47;12.25;;;6.45;;
44068;SDS011;29738;51.234;5.484;2022-12-18T02:00:16;8.23;;;5.38;;
44068;SDS011;29738;51.234;5.484;2022-12-18T02:02:44;17.92;;;6.78;;
44068;SDS011;29738;51.234;5.484;2022-12-18T02:05:12;9.95;;;5.82;;
44068;SDS011;29738;51.234;5.484;2022-12-18T02:10:41;9.00;;;4.88;;
44068;SDS011;29738;51.234;5.484;2022-12-18T02:16:19;5.75;;;4.53;;
44068;SDS011;29738;51.234;5.484;2022-12-18T02:18:48;8.77;;;5.30;;
44068;SDS011;29738;51.234;5.484;2022-12-18T02:26:50;3.95;;;3.38;;
44068;SDS011;29738;51.234;5.484;2022-12-18T02:29:22;9.52;;;4.88;;
44068;SDS011;29738;51.234;5.484;2022-12-18T02:34:22;10.10;;;3.78;;
44068;SDS011;29738;51.234;5.484;2022-12-18T02:36:53;9.02;;;4.25;;
44068;SDS011;29738;51.234;5.484;2022-12-18T02:39:20;7.50;;;4.78;;
44068;SDS011;29738;51.234;5.484;2022-12-18T02:41:48;7.50;;;4.88;;
44068;SDS011;29738;51.234;5.484;2022-12-18T02:44:15;8.65;;;5.82;;
44068;SDS011;29738;51.234;5.484;2022-12-18T02:46:42;8.18;;;5.47;;
44068;SDS011;29738;51.234;5.484;2022-12-18T02:49:22;7.60;;;5.35;;
44068;SDS011;29738;51.234;5.484;2022-12-18T02:51:52;8.73;;;5.28;;
44068;SDS011;29738;51.234;5.484;2022-12-18T02:54:35;7.40;;;4.43;;
44068;SDS011;29738;51.234;5.484;2022-12-18T02:57:13;11.82;;;7.45;;
44068;SDS011;29738;51.234;5.484;2022-12-18T02:59:56;12.10;;;5.05;;
44068;SDS011;29738;51.234;5.484;2022-12-18T03:02:29;6.18;;;3.90;;
44068;SDS011;29738;51.234;5.484;2022-12-18T03:05:25;6.88;;;4.95;;
44068;SDS011;29738;51.234;5.484;2022-12-18T03:08:00;5.85;;;4.80;;
44068;SDS011;29738;51.234;5.484;2022-12-18T03:10:37;14.63;;;5.63;;
44068;SDS011;29738;51.234;5.484;2022-12-18T03:13:08;7.70;;;5.65;;
44068;SDS011;29738;51.234;5.484;2022-12-18T03:15:39;7.82;;;3.80;;
44068;SDS011;29738;51.234;5.484;2022-12-18T03:18:11;6.07;;;2.80;;
44068;SDS011;29738;51.234;5.484;2022-12-18T03:20:49;9.77;;;4.45;;
44068;SDS011;29738;51.234;5.484;2022-12-18T03:23:20;4.82;;;3.85;;
44068;SDS011;29738;51.234;5.484;2022-12-18T03:25:50;4.45;;;2.92;;
44068;SDS011;29738;51.234;5.484;2022-12-18T03:28:20;22.73;;;5.78;;
44068;SDS011;29738;51.234;5.484;2022-12-18T03:30:47;3.33;;;2.70;;
44068;SDS011;29738;51.234;5.484;2022-12-18T03:33:19;6.95;;;4.28;;
44068;SDS011;29738;51.234;5.484;2022-12-18T03:35:50;9.52;;;3.88;;
44068;SDS011;29738;51.234;5.484;2022-12-18T03:38:16;5.63;;;3.40;;
44068;SDS011;29738;51.234;5.484;2022-12-18T03:46:11;8.73;;;3.90;;
44068;SDS011;29738;51.234;5.484;2022-12-18T03:48:51;9.57;;;4.28;;
44068;SDS011;29738;51.234;5.484;2022-12-18T03:51:25;6.28;;;4.50;;
44068;SDS011;29738;51.234;5.484;2022-12-18T03:56:28;4.85;;;3.83;;
44068;SDS011;29738;51.234;5.484;2022-12-18T03:58:57;6.13;;;3.35;;
44068;SDS011;29738;51.234;5.484;2022-12-18T04:01:28;4.88;;;3.17;;
44068;SDS011;29738;51.234;5.484;2022-12-18T04:04:00;6.60;;;3.92;;
44068;SDS011;29738;51.234;5.484;2022-12-18T04:06:27;7.22;;;4.40;;
44068;SDS011;29738;51.234;5.484;2022-12-18T04:08:54;5.80;;;4.30;;
44068;SDS011;29738;51.234;5.484;2022-12-18T04:11:21;3.75;;;3.33;;
44068;SDS011;29738;51.234;5.484;2022-12-18T04:13:47;4.82;;;3.83;;
44068;SDS011;29738;51.234;5.484;2022-12-18T04:16:13;5.47;;;4.03;;
44068;SDS011;29738;51.234;5.484;2022-12-18T04:18:38;10.48;;;4.72;;
44068;SDS011;29738;51.234;5.484;2022-12-18T04:21:04;9.15;;;4.25;;
44068;SDS011;29738;51.234;5.484;2022-12-18T04:23:30;6.70;;;3.75;;
44068;SDS011;29738;51.234;5.484;2022-12-18T04:25:56;6.90;;;5.10;;
44068;SDS011;29738;51.234;5.484;2022-12-18T04:28:21;5.47;;;4.00;;
44068;SDS011;29738;51.234;5.484;2022-12-18T04:31:58;8.63;;;4.15;;
44068;SDS011;29738;51.234;5.484;2022-12-18T04:34:23;5.90;;;3.75;;
44068;SDS011;29738;51.234;5.484;2022-12-18T04:36:49;9.77;;;4.68;;
44068;SDS011;29738;51.234;5.484;2022-12-18T04:39:15;7.90;;;4.75;;
44068;SDS011;29738;51.234;5.484;2022-12-18T04:41:40;5.30;;;3.70;;
44068;SDS011;29738;51.234;5.484;2022-12-18T04:44:06;7.82;;;4.13;;
44068;SDS011;29738;51.234;5.484;2022-12-18T04:46:32;8.88;;;5.18;;
44068;SDS011;29738;51.234;5.484;2022-12-18T04:48:58;4.68;;;3.50;;
44068;SDS011;29738;51.234;5.484;2022-12-18T04:51:24;7.60;;;4.13;;
44068;SDS011;29738;51.234;5.484;2022-12-18T04:53:50;6.00;;;4.10;;
44068;SDS011;29738;51.234;5.484;2022-12-18T04:56:15;7.93;;;3.60;;
44068;SDS011;29738;51.234;5.484;2022-12-18T04:58:42;3.80;;;3.08;;
44068;SDS011;29738;51.234;5.484;2022-12-18T05:01:09;6.82;;;4.13;;
44068;SDS011;29738;51.234;5.484;2022-12-18T05:03:36;6.15;;;2.92;;
44068;SDS011;29738;51.234;5.484;2022-12-18T05:06:02;8.77;;;3.90;;
44068;SDS011;29738;51.234;5.484;2022-12-18T05:08:28;12.57;;;7.43;;
44068;SDS011;29738;51.234;5.484;2022-12-18T05:11:01;5.75;;;4.47;;
44068;SDS011;29738;51.234;5.484;2022-12-18T05:13:29;6.22;;;4.22;;
44068;SDS011;29738;51.234;5.484;2022-12-18T05:15:55;5.03;;;3.35;;
44068;SDS011;29738;51.234;5.484;2022-12-18T05:18:21;6.63;;;3.53;;
44068;SDS011;29738;51.234;5.484;2022-12-18T05:20:48;6.15;;;2.83;;
44068;SDS011;29738;51.234;5.484;2022-12-18T05:23:15;9.23;;;4.00;;
44068;SDS011;29738;51.234;5.484;2022-12-18T05:25:40;4.63;;;2.78;;
44068;SDS011;29738;51.234;5.484;2022-12-18T05:28:06;7.25;;;4.82;;
44068;SDS011;29738;51.234;5.484;2022-12-18T05:30:32;8.07;;;3.97;;
44068;SDS011;29738;51.234;5.484;2022-12-18T05:32:58;3.92;;;3.15;;
44068;SDS011;29738;51.234;5.484;2022-12-18T05:35:23;7.63;;;3.25;;
44068;SDS011;29738;51.234;5.484;2022-12-18T05:37:49;4.70;;;3.53;;
44068;SDS011;29738;51.234;5.484;2022-12-18T05:40:15;6.13;;;3.75;;
44068;SDS011;29738;51.234;5.484;2022-12-18T05:42:40;9.93;;;3.92;;
44068;SDS011;29738;51.234;5.484;2022-12-18T05:45:06;6.60;;;4.75;;
44068;SDS011;29738;51.234;5.484;2022-12-18T05:47:32;6.97;;;4.28;;
44068;SDS011;29738;51.234;5.484;2022-12-18T05:49:58;6.32;;;3.20;;
44068;SDS011;29738;51.234;5.484;2022-12-18T05:52:24;5.68;;;2.90;;
44068;SDS011;29738;51.234;5.484;2022-12-18T05:54:50;7.03;;;4.05;;
44068;SDS011;29738;51.234;5.484;2022-12-18T05:57:19;8.18;;;3.92;;
44068;SDS011;29738;51.234;5.484;2022-12-18T05:59:44;7.50;;;3.65;;
44068;SDS011;29738;51.234;5.484;2022-12-18T06:02:10;9.68;;;5.13;;
44068;SDS011;29738;51.234;5.484;2022-12-18T06:04:36;7.25;;;3.80;;
44068;SDS011;29738;51.234;5.484;2022-12-18T06:07:02;6.88;;;3.65;;
44068;SDS011;29738;51.234;5.484;2022-12-18T06:09:29;8.52;;;7.15;;
44068;SDS011;29738;51.234;5.484;2022-12-18T06:11:54;31.20;;;15.75;;
44068;SDS011;29738;51.234;5.484;2022-12-18T06:14:20;19.48;;;8.65;;
44068;SDS011;29738;51.234;5.484;2022-12-18T06:16:46;22.45;;;8.35;;
44068;SDS011;29738;51.234;5.484;2022-12-18T06:19:13;5.97;;;3.42;;
44068;SDS011;29738;51.234;5.484;2022-12-18T06:21:40;10.77;;;5.32;;
44068;SDS011;29738;51.234;5.484;2022-12-18T06:24:07;11.50;;;5.30;;
44068;SDS011;29738;51.234;5.484;2022-12-18T06:26:32;5.50;;;3.58;;
44068;SDS011;29738;51.234;5.484;2022-12-18T06:28:58;5.97;;;4.68;;
44068;SDS011;29738;51.234;5.484;2022-12-18T06:31:25;7.47;;;4.35;;
44068;SDS011;29738;51.234;5.484;2022-12-18T06:33:50;7.80;;;5.55;;
44068;SDS011;29738;51.234;5.484;2022-12-18T06:36:17;5.03;;;3.63;;
44068;SDS011;29738;51.234;5.484;2022-12-18T06:38:43;5.13;;;4.63;;
44068;SDS011;29738;51.234;5.484;2022-12-18T06:41:16;7.13;;;5.20;;
44068;SDS011;29738;51.234;5.484;2022-12-18T06:43:43;11.48;;;5.78;;
44068;SDS011;29738;51.234;5.484;2022-12-18T06:46:09;5.07;;;3.58;;
44068;SDS011;29738;51.234;5.484;2022-12-18T06:48:36;8.07;;;4.57;;
44068;SDS011;29738;51.234;5.484;2022-12-18T06:51:01;9.07;;;5.10;;
44068;SDS011;29738;51.234;5.484;2022-12-18T06:53:28;7.57;;;5.22;;
44068;SDS011;29738;51.234;5.484;2022-12-18T06:56:04;6.00;;;3.72;;
44068;SDS011;29738;51.234;5.484;2022-12-18T06:58:31;6.13;;;3.92;;
44068;SDS011;29738;51.234;5.484;2022-12-18T07:01:01;7.30;;;4.07;;
44068;SDS011;29738;51.234;5.484;2022-12-18T07:03:28;3.83;;;2.42;;
44068;SDS011;29738;51.234;5.484;2022-12-18T07:05:55;6.85;;;4.22;;
44068;SDS011;29738;51.234;5.484;2022-12-18T07:08:21;6.22;;;3.83;;
44068;SDS011;29738;51.234;5.484;2022-12-18T07:10:47;2.88;;;2.13;;
44068;SDS011;29738;51.234;5.484;2022-12-18T07:13:14;6.80;;;5.60;;
44068;SDS011;29738;51.234;5.484;2022-12-18T07:15:41;8.70;;;3.90;;
44068;SDS011;29738;51.234;5.484;2022-12-18T07:18:06;8.10;;;5.07;;
44068;SDS011;29738;51.234;5.484;2022-12-18T07:20:32;7.95;;;4.95;;
44068;SDS011;29738;51.234;5.484;2022-12-18T07:22:58;8.55;;;5.22;;
44068;SDS011;29738;51.234;5.484;2022-12-18T07:25:26;7.20;;;4.53;;
44068;SDS011;29738;51.234;5.484;2022-12-18T07:27:52;6.93;;;4.20;;
44068;SDS011;29738;51.234;5.484;2022-12-18T07:30:18;6.10;;;3.58;;
44068;SDS011;29738;51.234;5.484;2022-12-18T07:32:43;5.47;;;3.80;;
44068;SDS011;29738;51.234;5.484;2022-12-18T07:35:09;10.00;;;5.32;;
44068;SDS011;29738;51.234;5.484;2022-12-18T07:37:35;10.32;;;6.43;;
44068;SDS011;29738;51.234;5.484;2022-12-18T07:40:00;6.57;;;4.13;;
44068;SDS011;29738;51.234;5.484;2022-12-18T07:42:26;5.57;;;3.28;;
44068;SDS011;29738;51.234;5.484;2022-12-18T07:44:55;7.15;;;4.13;;
44068;SDS011;29738;51.234;5.484;2022-12-18T07:47:21;13.13;;;5.32;;
44068;SDS011;29738;51.234;5.484;2022-12-18T07:49:47;9.73;;;4.75;;
44068;SDS011;29738;51.234;5.484;2022-12-18T07:52:13;6.38;;;3.95;;
44068;SDS011;29738;51.234;5.484;2022-12-18T07:54:39;9.77;;;5.13;;
44068;SDS011;29738;51.234;5.484;2022-12-18T07:57:05;8.65;;;4.57;;
44068;SDS011;29738;51.234;5.484;2022-12-18T07:59:31;5.32;;;3.90;;
44068;SDS011;29738;51.234;5.484;2022-12-18T08:01:57;12.07;;;4.18;;
44068;SDS011;29738;51.234;5.484;2022-12-18T08:04:23;10.40;;;5.30;;
44068;SDS011;29738;51.234;5.484;2022-12-18T08:06:50;13.30;;;4.35;;
44068;SDS011;29738;51.234;5.484;2022-12-18T08:09:18;11.60;;;6.43;;
44068;SDS011;29738;51.234;5.484;2022-12-18T08:11:44;7.50;;;6.07;;
44068;SDS011;29738;51.234;5.484;2022-12-18T08:14:10;7.70;;;5.00;;
44068;SDS011;29738;51.234;5.484;2022-12-18T08:16:36;6.55;;;5.43;;
44068;SDS011;29738;51.234;5.484;2022-12-18T08:19:02;10.80;;;6.10;;
44068;SDS011;29738;51.234;5.484;2022-12-18T08:21:29;10.32;;;5.55;;
44068;SDS011;29738;51.234;5.484;2022-12-18T08:23:56;9.25;;;3.90;;
44068;SDS011;29738;51.234;5.484;2022-12-18T08:26:24;12.30;;;7.30;;
44068;SDS011;29738;51.234;5.484;2022-12-18T08:28:53;10.25;;;6.47;;
44068;SDS011;29738;51.234;5.484;2022-12-18T08:31:20;10.55;;;5.10;;
44068;SDS011;29738;51.234;5.484;2022-12-18T08:33:48;10.63;;;4.53;;
44068;SDS011;29738;51.234;5.484;2022-12-18T08:36:14;4.55;;;4.15;;
44068;SDS011;29738;51.234;5.484;2022-12-18T08:38:41;8.60;;;6.32;;
44068;SDS011;29738;51.234;5.484;2022-12-18T08:41:07;13.43;;;5.60;;
44068;SDS011;29738;51.234;5.484;2022-12-18T08:43:35;11.18;;;6.22;;
44068;SDS011;29738;51.234;5.484;2022-12-18T08:46:20;16.88;;;7.07;;
44068;SDS011;29738;51.234;5.484;2022-12-18T08:48:47;7.75;;;4.75;;
44068;SDS011;29738;51.234;5.484;2022-12-18T08:51:16;12.77;;;6.72;;
44068;SDS011;29738;51.234;5.484;2022-12-18T08:53:42;11.77;;;5.00;;
44068;SDS011;29738;51.234;5.484;2022-12-18T08:56:09;11.88;;;7.10;;
44068;SDS011;29738;51.234;5.484;2022-12-18T08:58:35;9.60;;;6.15;;
44068;SDS011;29738;51.234;5.484;2022-12-18T09:01:02;9.60;;;5.18;;
44068;SDS011;29738;51.234;5.484;2022-12-18T09:03:29;8.93;;;4.18;;
44068;SDS011;29738;51.234;5.484;2022-12-18T09:05:55;6.50;;;5.10;;
44068;SDS011;29738;51.234;5.484;2022-12-18T09:08:21;7.43;;;4.38;;
44068;SDS011;29738;51.234;5.484;2022-12-18T09:10:47;14.60;;;6.88;;
44068;SDS011;29738;51.234;5.484;2022-12-18T09:13:15;8.32;;;4.90;;
44068;SDS011;29738;51.234;5.484;2022-12-18T09:15:41;14.80;;;7.43;;
44068;SDS011;29738;51.234;5.484;2022-12-18T09:18:08;15.02;;;7.60;;
44068;SDS011;29738;51.234;5.484;2022-12-18T09:20:35;14.85;;;6.47;;
44068;SDS011;29738;51.234;5.484;2022-12-18T09:23:01;15.43;;;6.63;;
44068;SDS011;29738;51.234;5.484;2022-12-18T09:25:28;12.40;;;6.80;;
44068;SDS011;29738;51.234;5.484;2022-12-18T09:28:19;11.65;;;7.45;;
44068;SDS011;29738;51.234;5.484;2022-12-18T09:30:48;10.02;;;6.65;;
44068;SDS011;29738;51.234;5.484;2022-12-18T09:33:14;13.43;;;7.10;;
44068;SDS011;29738;51.234;5.484;2022-12-18T09:35:42;5.50;;;4.25;;
44068;SDS011;29738;51.234;5.484;2022-12-18T09:38:13;7.95;;;4.22;;
44068;SDS011;29738;51.234;5.484;2022-12-18T09:43:13;12.60;;;5.97;;
44068;SDS011;29738;51.234;5.484;2022-12-18T09:45:58;5.80;;;4.57;;
44068;SDS011;29738;51.234;5.484;2022-12-18T09:48:31;12.48;;;6.00;;
44068;SDS011;29738;51.234;5.484;2022-12-18T09:51:05;16.20;;;9.27;;
44068;SDS011;29738;51.234;5.484;2022-12-18T09:53:38;9.70;;;4.50;;
44068;SDS011;29738;51.234;5.484;2022-12-18T09:56:10;9.00;;;5.55;;
44068;SDS011;29738;51.234;5.484;2022-12-18T09:58:48;11.82;;;4.80;;
44068;SDS011;29738;51.234;5.484;2022-12-18T10:01:18;10.80;;;5.55;;
44068;SDS011;29738;51.234;5.484;2022-12-18T10:03:48;8.73;;;5.53;;
44068;SDS011;29738;51.234;5.484;2022-12-18T10:06:15;9.80;;;5.10;;
44068;SDS011;29738;51.234;5.484;2022-12-18T10:08:46;11.15;;;7.65;;
44068;SDS011;29738;51.234;5.484;2022-12-18T10:11:43;10.60;;;5.85;;
44068;SDS011;29738;51.234;5.484;2022-12-18T10:27:40;14.38;;;6.82;;
44068;SDS011;29738;51.234;5.484;2022-12-18T10:30:13;11.60;;;5.40;;
44068;SDS011;29738;51.234;5.484;2022-12-18T10:32:41;9.30;;;6.13;;
44068;SDS011;29738;51.234;5.484;2022-12-18T10:35:07;14.55;;;7.10;;
44068;SDS011;29738;51.234;5.484;2022-12-18T10:38:19;12.80;;;5.55;;
44068;SDS011;29738;51.234;5.484;2022-12-18T10:43:26;13.93;;;7.30;;
44068;SDS011;29738;51.234;5.484;2022-12-18T10:48:35;15.35;;;7.47;;
44068;SDS011;29738;51.234;5.484;2022-12-18T10:51:27;13.10;;;5.10;;
44068;SDS011;29738;51.234;5.484;2022-12-18T10:53:59;7.82;;;4.18;;
44068;SDS011;29738;51.234;5.484;2022-12-18T10:56:29;13.85;;;5.72;;
44068;SDS011;29738;51.234;5.484;2022-12-18T10:59:06;10.00;;;6.15;;
44068;SDS011;29738;51.234;5.484;2022-12-18T11:01:53;15.63;;;9.45;;
44068;SDS011;29738;51.234;5.484;2022-12-18T11:04:31;11.48;;;5.43;;
44068;SDS011;29738;51.234;5.484;2022-12-18T11:07:04;10.13;;;6.72;;
44068;SDS011;29738;51.234;5.484;2022-12-18T11:09:32;14.32;;;6.57;;
44068;SDS011;29738;51.234;5.484;2022-12-18T11:12:03;22.20;;;9.75;;
44068;SDS011;29738;51.234;5.484;2022-12-18T11:17:35;13.25;;;7.07;;
44068;SDS011;29738;51.234;5.484;2022-12-18T11:20:05;11.50;;;7.38;;
44068;SDS011;29738;51.234;5.484;2022-12-18T11:22:45;18.85;;;7.93;;
44068;SDS011;29738;51.234;5.484;2022-12-18T11:25:31;10.68;;;7.45;;
44068;SDS011;29738;51.234;5.484;2022-12-18T11:28:00;22.50;;;11.30;;
44068;SDS011;29738;51.234;5.484;2022-12-18T11:30:31;13.35;;;8.70;;
44068;SDS011;29738;51.234;5.484;2022-12-18T11:35:48;13.05;;;7.28;;
44068;SDS011;29738;51.234;5.484;2022-12-18T11:38:24;13.27;;;6.68;;
44068;SDS011;29738;51.234;5.484;2022-12-18T11:43:41;17.15;;;7.10;;
44068;SDS011;29738;51.234;5.484;2022-12-18T11:46:25;17.00;;;8.20;;
44068;SDS011;29738;51.234;5.484;2022-12-18T11:49:01;15.38;;;8.27;;
44068;SDS011;29738;51.234;5.484;2022-12-18T11:52:11;17.25;;;7.85;;
44068;SDS011;29738;51.234;5.484;2022-12-18T11:54:43;15.98;;;8.15;;
44068;SDS011;29738;51.234;5.484;2022-12-18T11:57:32;15.55;;;7.45;;
44068;SDS011;29738;51.234;5.484;2022-12-18T12:08:24;13.57;;;7.65;;
44068;SDS011;29738;51.234;5.484;2022-12-18T12:16:17;12.57;;;6.95;;
44068;SDS011;29738;51.234;5.484;2022-12-18T12:18:49;10.85;;;6.55;;
44068;SDS011;29738;51.234;5.484;2022-12-18T12:21:54;13.03;;;6.83;;
44068;SDS011;29738;51.234;5.484;2022-12-18T12:24:59;17.60;;;8.70;;
44068;SDS011;29738;51.234;5.484;2022-12-18T12:27:40;13.82;;;7.88;;
44068;SDS011;29738;51.234;5.484;2022-12-18T12:30:21;13.30;;;7.63;;
44068;SDS011;29738;51.234;5.484;2022-12-18T12:36:27;16.05;;;8.07;;
44068;SDS011;29738;51.234;5.484;2022-12-18T12:38:41;10.32;;;6.50;;
44068;SDS011;29738;51.234;5.484;2022-12-18T12:41:16;14.18;;;6.72;;
44068;SDS011;29738;51.234;5.484;2022-12-18T12:44:06;13.07;;;7.03;;
44068;SDS011;29738;51.234;5.484;2022-12-18T12:46:36;16.35;;;9.52;;
44068;SDS011;29738;51.234;5.484;2022-12-18T12:49:05;16.95;;;8.07;;
44068;SDS011;29738;51.234;5.484;2022-12-18T12:51:47;15.00;;;7.35;;
44068;SDS011;29738;51.234;5.484;2022-12-18T12:54:24;10.95;;;5.97;;
44068;SDS011;29738;51.234;5.484;2022-12-18T12:57:04;8.73;;;5.32;;
44068;SDS011;29738;51.234;5.484;2022-12-18T13:00:07;13.23;;;6.68;;
44068;SDS011;29738;51.234;5.484;2022-12-18T13:05:54;23.60;;;7.57;;
44068;SDS011;29738;51.234;5.484;2022-12-18T13:08:26;11.63;;;7.07;;
44068;SDS011;29738;51.234;5.484;2022-12-18T13:10:59;18.45;;;8.35;;
44068;SDS011;29738;51.234;5.484;2022-12-18T13:13:48;14.43;;;6.43;;
44068;SDS011;29738;51.234;5.484;2022-12-18T13:16:19;15.18;;;7.63;;
44068;SDS011;29738;51.234;5.484;2022-12-18T13:18:50;20.77;;;7.50;;
44068;SDS011;29738;51.234;5.484;2022-12-18T13:21:36;15.60;;;8.73;;
44068;SDS011;29738;51.234;5.484;2022-12-18T13:24:15;16.58;;;7.07;;
44068;SDS011;29738;51.234;5.484;2022-12-18T13:26:49;14.68;;;7.95;;
44068;SDS011;29738;51.234;5.484;2022-12-18T13:29:40;12.52;;;7.57;;
44068;SDS011;29738;51.234;5.484;2022-12-18T13:32:21;13.15;;;7.13;;
44068;SDS011;29738;51.234;5.484;2022-12-18T13:34:48;13.63;;;7.05;;
44068;SDS011;29738;51.234;5.484;2022-12-18T13:37:42;13.32;;;6.60;;
44068;SDS011;29738;51.234;5.484;2022-12-18T13:40:49;13.60;;;7.78;;
44068;SDS011;29738;51.234;5.484;2022-12-18T13:45:49;22.65;;;8.27;;
44068;SDS011;29738;51.234;5.484;2022-12-18T13:48:24;13.13;;;7.43;;
44068;SDS011;29738;51.234;5.484;2022-12-18T13:50:53;18.08;;;8.63;;
44068;SDS011;29738;51.234;5.484;2022-12-18T13:55:55;9.48;;;6.28;;
44068;SDS011;29738;51.234;5.484;2022-12-18T13:58:21;25.45;;;11.13;;
44068;SDS011;29738;51.234;5.484;2022-12-18T14:00:47;16.48;;;7.60;;
44068;SDS011;29738;51.234;5.484;2022-12-18T14:03:20;16.83;;;7.85;;
44068;SDS011;29738;51.234;5.484;2022-12-18T14:06:07;17.00;;;8.90;;
44068;SDS011;29738;51.234;5.484;2022-12-18T14:08:36;16.88;;;8.15;;
44068;SDS011;29738;51.234;5.484;2022-12-18T14:11:06;17.85;;;9.45;;
44068;SDS011;29738;51.234;5.484;2022-12-18T14:13:43;18.80;;;8.80;;
44068;SDS011;29738;51.234;5.484;2022-12-18T14:16:11;15.82;;;8.30;;
44068;SDS011;29738;51.234;5.484;2022-12-18T14:18:48;15.35;;;8.50;;
44068;SDS011;29738;51.234;5.484;2022-12-18T14:21:28;27.30;;;16.15;;
44068;SDS011;29738;51.234;5.484;2022-12-18T14:26:50;21.17;;;12.05;;
44068;SDS011;29738;51.234;5.484;2022-12-18T14:29:26;16.00;;;9.35;;
44068;SDS011;29738;51.234;5.484;2022-12-18T14:34:41;21.80;;;11.30;;
44068;SDS011;29738;51.234;5.484;2022-12-18T14:37:11;22.67;;;9.80;;
44068;SDS011;29738;51.234;5.484;2022-12-18T14:39:39;23.10;;;13.07;;
44068;SDS011;29738;51.234;5.484;2022-12-18T14:42:05;18.73;;;9.05;;
44068;SDS011;29738;51.234;5.484;2022-12-18T14:44:34;18.45;;;8.52;;
44068;SDS011;29738;51.234;5.484;2022-12-18T14:47:00;18.40;;;8.27;;
44068;SDS011;29738;51.234;5.484;2022-12-18T14:49:30;17.08;;;9.15;;
44068;SDS011;29738;51.234;5.484;2022-12-18T14:51:58;16.63;;;8.57;;
44068;SDS011;29738;51.234;5.484;2022-12-18T14:54:27;16.27;;;9.25;;
44068;SDS011;29738;51.234;5.484;2022-12-18T14:59:49;16.33;;;8.43;;
44068;SDS011;29738;51.234;5.484;2022-12-18T15:05:04;16.77;;;9.32;;
44068;SDS011;29738;51.234;5.484;2022-12-18T15:07:41;16.08;;;8.60;;
44068;SDS011;29738;51.234;5.484;2022-12-18T15:10:21;14.80;;;8.88;;
44068;SDS011;29738;51.234;5.484;2022-12-18T15:12:49;16.15;;;8.60;;
44068;SDS011;29738;51.234;5.484;2022-12-18T15:18:01;14.32;;;8.80;;
44068;SDS011;29738;51.234;5.484;2022-12-18T15:20:32;21.15;;;9.70;;
44068;SDS011;29738;51.234;5.484;2022-12-18T15:23:24;15.65;;;9.05;;
44068;SDS011;29738;51.234;5.484;2022-12-18T15:26:08;20.67;;;11.73;;
44068;SDS011;29738;51.234;5.484;2022-12-18T15:33:40;18.45;;;8.90;;
44068;SDS011;29738;51.234;5.484;2022-12-18T15:36:11;15.88;;;8.88;;
44068;SDS011;29738;51.234;5.484;2022-12-18T15:38:38;15.73;;;7.78;;
44068;SDS011;29738;51.234;5.484;2022-12-18T15:41:04;17.98;;;8.27;;
44068;SDS011;29738;51.234;5.484;2022-12-18T15:43:31;18.90;;;9.27;;
44068;SDS011;29738;51.234;5.484;2022-12-18T15:46:04;15.63;;;8.52;;
44068;SDS011;29738;51.234;5.484;2022-12-18T15:48:42;14.70;;;8.13;;
44068;SDS011;29738;51.234;5.484;2022-12-18T15:51:18;15.77;;;9.15;;
44068;SDS011;29738;51.234;5.484;2022-12-18T15:53:47;21.30;;;9.85;;
44068;SDS011;29738;51.234;5.484;2022-12-18T15:56:15;17.65;;;9.98;;
44068;SDS011;29738;51.234;5.484;2022-12-18T15:59:00;17.83;;;9.02;;
44068;SDS011;29738;51.234;5.484;2022-12-18T16:01:27;20.20;;;9.32;;
44068;SDS011;29738;51.234;5.484;2022-12-18T16:03:54;20.08;;;8.85;;
44068;SDS011;29738;51.234;5.484;2022-12-18T16:06:20;20.35;;;10.65;;
44068;SDS011;29738;51.234;5.484;2022-12-18T16:08:47;17.13;;;8.65;;
44068;SDS011;29738;51.234;5.484;2022-12-18T16:11:26;25.80;;;13.38;;
44068;SDS011;29738;51.234;5.484;2022-12-18T16:16:47;16.42;;;7.95;;
44068;SDS011;29738;51.234;5.484;2022-12-18T16:19:14;20.98;;;10.05;;
44068;SDS011;29738;51.234;5.484;2022-12-18T16:21:41;28.80;;;14.55;;
44068;SDS011;29738;51.234;5.484;2022-12-18T16:24:13;19.20;;;9.35;;
44068;SDS011;29738;51.234;5.484;2022-12-18T16:26:41;22.02;;;11.93;;
44068;SDS011;29738;51.234;5.484;2022-12-18T16:29:07;22.45;;;11.68;;
44068;SDS011;29738;51.234;5.484;2022-12-18T16:31:33;19.48;;;9.80;;
44068;SDS011;29738;51.234;5.484;2022-12-18T16:36:49;24.48;;;13.15;;
44068;SDS011;29738;51.234;5.484;2022-12-18T16:39:15;31.23;;;17.40;;
44068;SDS011;29738;51.234;5.484;2022-12-18T16:41:41;23.40;;;12.65;;